Meteo Giornale » Osservazioni meteo Italia » Resia Pass

ore: 12:55 - Osservazioni Meteo Resia Pass
Lat. 46° 50' N Lon. 10° 30' E Alt. 1800 metri s.l.m.

poco_nuvoloso Europe/Rome

21 °C

Poco Nuvoloso

Temp. 24 Ore

11 °C

23 °C

Sud/Sud-Ovest

11.1 Km/h

Dew point 9 °C

Umidità 46 %

Visibilità  10 Km

Il sole sorge alle ore 06:15

Il sole tramonta alle ore 20:28

Data e Ora Cielo e Fenomeni T °C DP °C Um. % Pres. hPa Vis. km Vento km/h
Oggi h: 12:55 poco_nuvoloso Poco Nuvoloso 21 9 46 1023 10 S/SO 11.1
Oggi h: 11:55 poco_nuvoloso Poco Nuvoloso 19 9 52 1023 10 S 9.3
Oggi h: 10:55 poco_nuvoloso Poco Nuvoloso 16 10 67 1024 10 S/SO 9.3
Oggi h: 09:55 poco_nuvoloso Poco Nuvoloso 14 11 82 1024 10 N 7.4
Oggi h: 08:55 poco_nuvoloso Poco Nuvoloso 12 10 87 1024 10 N/NE 13
Oggi h: 07:55 sereno Sereno 11 10 93 1024 10 N/NE 11.1
Oggi h: 06:55 sereno Sereno 11 10 93 1025 10 N/NE 7.4
Oggi h: 05:55 sereno Sereno 11 10 93 1025 10 N 5.5
Oggi h: 04:55 sereno Sereno 12 11 93 1025 10 N/NE 7.4
Oggi h: 03:55 sereno Sereno 12 11 93 1025 10 N/NE 7.4
Oggi h: 02:55 sereno Sereno 13 10 81 1025 10 N 5.5
Oggi h: 01:55 sereno Sereno 13 10 81 1024 10 N/NE 7.4
Oggi h: 00:55 sereno Sereno 14 10 76 1024 10 N/NO 7.4
Ieri h: 23:55 sereno Sereno 14 11 82 1023 10 N/NE 13
Ieri h: 21:55 sereno Sereno 16 9 63 1023 10 NE 11.1
Ieri h: 20:55 sereno Sereno 17 8 55 1022 10 NE 13
Ieri h: 19:55 poco_nuvoloso Poco Nuvoloso 18 4 39 1021 10 N/NE 13
Ieri h: 18:55 nuvoloso Nuvoloso 20 4 34 1021 10 N 14.8
Ieri h: 17:55 nuvoloso Nuvoloso 22 3 28 1021 10 N 16.7
Ieri h: 16:55 nuvoloso Nuvoloso 22 2 26 1021 10 N 18.5
Ieri h: 15:55 nuvoloso Nuvoloso 23 2 25 1022 10 N/NE 13
Ieri h: 14:55 nuvoloso Nuvoloso 23 2 25 1022 10 N 11.1
Ieri h: 13:55 nuvoloso Nuvoloso 21 3 30 1022 10 N/NE 13